sensor_id;sensor_type;location;lat;lon;timestamp;temperature;humidity
6538;DHT22;3302;52.508;13.454;2023-12-29T00:01:59;8.00;99.90
6538;DHT22;3302;52.508;13.454;2023-12-29T00:04:26;8.00;99.90
6538;DHT22;3302;52.508;13.454;2023-12-29T00:06:52;8.00;99.90
6538;DHT22;3302;52.508;13.454;2023-12-29T00:09:18;8.10;99.90
6538;DHT22;3302;52.508;13.454;2023-12-29T00:11:47;8.00;99.90
6538;DHT22;3302;52.508;13.454;2023-12-29T00:14:13;8.00;99.90
6538;DHT22;3302;52.508;13.454;2023-12-29T00:16:39;8.00;99.90
6538;DHT22;3302;52.508;13.454;2023-12-29T00:19:05;8.10;99.90
6538;DHT22;3302;52.508;13.454;2023-12-29T00:21:31;8.10;99.90
6538;DHT22;3302;52.508;13.454;2023-12-29T00:23:58;8.10;99.90
6538;DHT22;3302;52.508;13.454;2023-12-29T00:26:24;8.10;99.90
6538;DHT22;3302;52.508;13.454;2023-12-29T00:28:50;8.10;99.90
6538;DHT22;3302;52.508;13.454;2023-12-29T00:31:16;8.10;99.90
6538;DHT22;3302;52.508;13.454;2023-12-29T00:33:44;8.10;99.90
6538;DHT22;3302;52.508;13.454;2023-12-29T00:36:17;8.10;99.90
6538;DHT22;3302;52.508;13.454;2023-12-29T00:38:43;8.10;99.90
6538;DHT22;3302;52.508;13.454;2023-12-29T00:41:09;8.10;99.90
6538;DHT22;3302;52.508;13.454;2023-12-29T00:43:35;8.00;99.90
6538;DHT22;3302;52.508;13.454;2023-12-29T00:46:07;8.10;99.90
6538;DHT22;3302;52.508;13.454;2023-12-29T00:48:34;8.10;99.90
6538;DHT22;3302;52.508;13.454;2023-12-29T00:51:03;8.10;99.90
6538;DHT22;3302;52.508;13.454;2023-12-29T00:53:29;8.10;99.90
6538;DHT22;3302;52.508;13.454;2023-12-29T00:55:58;8.10;99.90
6538;DHT22;3302;52.508;13.454;2023-12-29T00:58:24;8.10;99.90
6538;DHT22;3302;52.508;13.454;2023-12-29T01:00:49;8.10;99.90
6538;DHT22;3302;52.508;13.454;2023-12-29T01:03:15;8.10;99.90
6538;DHT22;3302;52.508;13.454;2023-12-29T01:05:41;8.10;99.90
6538;DHT22;3302;52.508;13.454;2023-12-29T01:08:07;8.10;99.90
6538;DHT22;3302;52.508;13.454;2023-12-29T01:10:33;8.00;99.90
6538;DHT22;3302;52.508;13.454;2023-12-29T01:12:58;8.00;99.90
6538;DHT22;3302;52.508;13.454;2023-12-29T01:15:24;8.00;99.90
6538;DHT22;3302;52.508;13.454;2023-12-29T01:17:50;8.00;99.90
6538;DHT22;3302;52.508;13.454;2023-12-29T01:20:16;8.00;99.90
6538;DHT22;3302;52.508;13.454;2023-12-29T01:22:41;8.10;99.90
6538;DHT22;3302;52.508;13.454;2023-12-29T01:25:07;8.10;99.90
6538;DHT22;3302;52.508;13.454;2023-12-29T01:27:33;8.10;99.90
6538;DHT22;3302;52.508;13.454;2023-12-29T01:29:59;8.10;99.90
6538;DHT22;3302;52.508;13.454;2023-12-29T01:32:25;8.10;99.90
6538;DHT22;3302;52.508;13.454;2023-12-29T01:34:54;8.00;99.90
6538;DHT22;3302;52.508;13.454;2023-12-29T01:37:20;8.10;99.90
6538;DHT22;3302;52.508;13.454;2023-12-29T01:39:46;8.10;99.90
6538;DHT22;3302;52.508;13.454;2023-12-29T01:42:12;8.10;99.90
6538;DHT22;3302;52.508;13.454;2023-12-29T01:44:38;8.00;99.90
6538;DHT22;3302;52.508;13.454;2023-12-29T01:47:05;8.10;99.90
6538;DHT22;3302;52.508;13.454;2023-12-29T01:49:36;8.10;99.90
6538;DHT22;3302;52.508;13.454;2023-12-29T01:52:03;8.10;99.90
6538;DHT22;3302;52.508;13.454;2023-12-29T01:54:33;8.10;99.90
6538;DHT22;3302;52.508;13.454;2023-12-29T01:57:00;8.10;99.90
6538;DHT22;3302;52.508;13.454;2023-12-29T01:59:28;8.10;99.90
6538;DHT22;3302;52.508;13.454;2023-12-29T02:01:55;8.10;99.90
6538;DHT22;3302;52.508;13.454;2023-12-29T02:04:24;8.10;99.90
6538;DHT22;3302;52.508;13.454;2023-12-29T02:06:51;8.10;99.90
6538;DHT22;3302;52.508;13.454;2023-12-29T02:09:17;8.10;99.90
6538;DHT22;3302;52.508;13.454;2023-12-29T02:11:47;8.10;99.90
6538;DHT22;3302;52.508;13.454;2023-12-29T02:14:14;8.20;99.90
6538;DHT22;3302;52.508;13.454;2023-12-29T02:19:45;8.30;99.90
6538;DHT22;3302;52.508;13.454;2023-12-29T02:22:12;8.20;99.90
6538;DHT22;3302;52.508;13.454;2023-12-29T02:24:39;8.20;99.90
6538;DHT22;3302;52.508;13.454;2023-12-29T02:29:38;8.30;99.90
6538;DHT22;3302;52.508;13.454;2023-12-29T02:32:06;8.30;99.90
6538;DHT22;3302;52.508;13.454;2023-12-29T02:34:36;8.30;99.90
6538;DHT22;3302;52.508;13.454;2023-12-29T02:37:04;8.30;99.90
6538;DHT22;3302;52.508;13.454;2023-12-29T02:39:29;8.30;99.90
6538;DHT22;3302;52.508;13.454;2023-12-29T02:41:55;8.30;99.90
6538;DHT22;3302;52.508;13.454;2023-12-29T02:44:21;8.30;99.90
6538;DHT22;3302;52.508;13.454;2023-12-29T02:46:47;8.20;99.90
6538;DHT22;3302;52.508;13.454;2023-12-29T02:49:13;8.30;99.90
6538;DHT22;3302;52.508;13.454;2023-12-29T02:51:39;8.30;99.90
6538;DHT22;3302;52.508;13.454;2023-12-29T02:54:05;8.30;99.90
6538;DHT22;3302;52.508;13.454;2023-12-29T02:56:33;8.30;99.90
6538;DHT22;3302;52.508;13.454;2023-12-29T02:58:59;8.30;99.90
6538;DHT22;3302;52.508;13.454;2023-12-29T03:01:25;8.30;99.90
6538;DHT22;3302;52.508;13.454;2023-12-29T03:03:51;8.30;99.90
6538;DHT22;3302;52.508;13.454;2023-12-29T03:06:17;8.30;99.90
6538;DHT22;3302;52.508;13.454;2023-12-29T03:08:42;8.30;99.90
6538;DHT22;3302;52.508;13.454;2023-12-29T03:11:08;8.30;99.90
6538;DHT22;3302;52.508;13.454;2023-12-29T03:13:34;8.40;99.90
6538;DHT22;3302;52.508;13.454;2023-12-29T03:16:00;8.40;99.90
6538;DHT22;3302;52.508;13.454;2023-12-29T03:18:26;8.40;99.90
6538;DHT22;3302;52.508;13.454;2023-12-29T03:20:52;8.40;99.90
6538;DHT22;3302;52.508;13.454;2023-12-29T03:23:18;8.40;99.90
6538;DHT22;3302;52.508;13.454;2023-12-29T03:25:44;8.30;99.90
6538;DHT22;3302;52.508;13.454;2023-12-29T03:28:10;8.40;99.90
6538;DHT22;3302;52.508;13.454;2023-12-29T03:30:36;8.40;99.90
6538;DHT22;3302;52.508;13.454;2023-12-29T03:33:02;8.30;99.90
6538;DHT22;3302;52.508;13.454;2023-12-29T03:35:28;8.40;99.90
6538;DHT22;3302;52.508;13.454;2023-12-29T03:37:54;8.40;99.90
6538;DHT22;3302;52.508;13.454;2023-12-29T03:40:19;8.40;99.90
6538;DHT22;3302;52.508;13.454;2023-12-29T03:42:46;8.40;99.90
6538;DHT22;3302;52.508;13.454;2023-12-29T03:45:11;8.40;99.90
6538;DHT22;3302;52.508;13.454;2023-12-29T03:47:37;8.40;99.90
6538;DHT22;3302;52.508;13.454;2023-12-29T03:50:03;8.40;99.90
6538;DHT22;3302;52.508;13.454;2023-12-29T03:52:29;8.50;99.90
6538;DHT22;3302;52.508;13.454;2023-12-29T03:54:55;8.50;99.90
6538;DHT22;3302;52.508;13.454;2023-12-29T03:57:21;8.50;99.90
6538;DHT22;3302;52.508;13.454;2023-12-29T03:59:46;8.50;99.90
6538;DHT22;3302;52.508;13.454;2023-12-29T04:02:12;8.50;99.90
6538;DHT22;3302;52.508;13.454;2023-12-29T04:04:38;8.50;99.90
6538;DHT22;3302;52.508;13.454;2023-12-29T04:07:04;8.50;99.90
6538;DHT22;3302;52.508;13.454;2023-12-29T04:09:30;8.60;99.90
6538;DHT22;3302;52.508;13.454;2023-12-29T04:11:56;8.50;99.90
6538;DHT22;3302;52.508;13.454;2023-12-29T04:14:22;8.50;99.90
6538;DHT22;3302;52.508;13.454;2023-12-29T04:16:48;8.50;99.90
6538;DHT22;3302;52.508;13.454;2023-12-29T04:19:14;8.50;99.90
6538;DHT22;3302;52.508;13.454;2023-12-29T04:21:39;8.50;99.90
6538;DHT22;3302;52.508;13.454;2023-12-29T04:24:05;8.50;99.90
6538;DHT22;3302;52.508;13.454;2023-12-29T04:26:37;8.50;99.90
6538;DHT22;3302;52.508;13.454;2023-12-29T04:29:03;8.50;99.90
6538;DHT22;3302;52.508;13.454;2023-12-29T04:31:29;8.50;99.90
6538;DHT22;3302;52.508;13.454;2023-12-29T04:33:55;8.50;99.90
6538;DHT22;3302;52.508;13.454;2023-12-29T04:36:21;8.50;99.90
6538;DHT22;3302;52.508;13.454;2023-12-29T04:38:46;8.50;99.90
6538;DHT22;3302;52.508;13.454;2023-12-29T04:41:12;8.50;99.90
6538;DHT22;3302;52.508;13.454;2023-12-29T04:43:39;8.60;99.90
6538;DHT22;3302;52.508;13.454;2023-12-29T04:46:04;8.50;99.90
6538;DHT22;3302;52.508;13.454;2023-12-29T04:48:30;8.50;99.90
6538;DHT22;3302;52.508;13.454;2023-12-29T04:50:56;8.50;99.90
6538;DHT22;3302;52.508;13.454;2023-12-29T04:53:22;8.50;99.90
6538;DHT22;3302;52.508;13.454;2023-12-29T04:55:47;8.50;99.90
6538;DHT22;3302;52.508;13.454;2023-12-29T04:58:13;8.50;99.90
6538;DHT22;3302;52.508;13.454;2023-12-29T05:00:39;8.50;99.90
6538;DHT22;3302;52.508;13.454;2023-12-29T05:03:05;8.40;99.90
6538;DHT22;3302;52.508;13.454;2023-12-29T05:05:31;8.50;99.90
6538;DHT22;3302;52.508;13.454;2023-12-29T05:07:57;8.50;99.90
6538;DHT22;3302;52.508;13.454;2023-12-29T05:10:23;8.50;99.90
6538;DHT22;3302;52.508;13.454;2023-12-29T05:12:49;8.60;99.90
6538;DHT22;3302;52.508;13.454;2023-12-29T05:15:14;8.60;99.90
6538;DHT22;3302;52.508;13.454;2023-12-29T05:17:40;8.60;99.90
6538;DHT22;3302;52.508;13.454;2023-12-29T05:20:07;8.60;99.90
6538;DHT22;3302;52.508;13.454;2023-12-29T05:22:33;8.60;99.90
6538;DHT22;3302;52.508;13.454;2023-12-29T05:24:59;8.60;99.90
6538;DHT22;3302;52.508;13.454;2023-12-29T05:27:26;8.60;99.90
6538;DHT22;3302;52.508;13.454;2023-12-29T05:29:52;8.60;99.90
6538;DHT22;3302;52.508;13.454;2023-12-29T05:32:18;8.70;99.90
6538;DHT22;3302;52.508;13.454;2023-12-29T05:34:44;8.70;99.90
6538;DHT22;3302;52.508;13.454;2023-12-29T05:37:09;8.70;99.90
6538;DHT22;3302;52.508;13.454;2023-12-29T05:39:35;8.70;99.90
6538;DHT22;3302;52.508;13.454;2023-12-29T05:42:01;8.80;99.90
6538;DHT22;3302;52.508;13.454;2023-12-29T05:44:27;8.80;99.90
6538;DHT22;3302;52.508;13.454;2023-12-29T05:46:53;8.80;99.90
6538;DHT22;3302;52.508;13.454;2023-12-29T05:49:24;8.80;99.90
6538;DHT22;3302;52.508;13.454;2023-12-29T05:51:51;8.80;99.90
6538;DHT22;3302;52.508;13.454;2023-12-29T05:54:17;8.90;99.90
6538;DHT22;3302;52.508;13.454;2023-12-29T05:56:43;8.80;99.90
6538;DHT22;3302;52.508;13.454;2023-12-29T05:59:09;8.90;99.90
6538;DHT22;3302;52.508;13.454;2023-12-29T06:01:35;8.90;99.90
6538;DHT22;3302;52.508;13.454;2023-12-29T06:04:01;8.90;99.90
6538;DHT22;3302;52.508;13.454;2023-12-29T06:06:26;8.90;99.90
6538;DHT22;3302;52.508;13.454;2023-12-29T06:08:52;9.00;99.90
6538;DHT22;3302;52.508;13.454;2023-12-29T06:11:18;8.90;99.90
6538;DHT22;3302;52.508;13.454;2023-12-29T06:13:44;9.00;99.90
6538;DHT22;3302;52.508;13.454;2023-12-29T06:16:17;9.00;99.90
6538;DHT22;3302;52.508;13.454;2023-12-29T06:18:43;9.00;99.90
6538;DHT22;3302;52.508;13.454;2023-12-29T06:21:09;9.00;99.90
6538;DHT22;3302;52.508;13.454;2023-12-29T06:23:34;9.00;99.90
6538;DHT22;3302;52.508;13.454;2023-12-29T06:26:00;9.00;99.90
6538;DHT22;3302;52.508;13.454;2023-12-29T06:28:26;9.00;99.90
6538;DHT22;3302;52.508;13.454;2023-12-29T06:30:52;9.00;99.90
6538;DHT22;3302;52.508;13.454;2023-12-29T06:33:18;9.00;99.90
6538;DHT22;3302;52.508;13.454;2023-12-29T06:35:46;9.00;99.90
6538;DHT22;3302;52.508;13.454;2023-12-29T06:38:12;9.00;99.90
6538;DHT22;3302;52.508;13.454;2023-12-29T06:40:38;9.10;99.90
6538;DHT22;3302;52.508;13.454;2023-12-29T06:43:04;9.10;99.90
6538;DHT22;3302;52.508;13.454;2023-12-29T06:45:30;9.20;99.90
6538;DHT22;3302;52.508;13.454;2023-12-29T06:47:56;9.10;99.90
6538;DHT22;3302;52.508;13.454;2023-12-29T06:50:22;9.20;99.90
6538;DHT22;3302;52.508;13.454;2023-12-29T06:52:48;9.20;99.90
6538;DHT22;3302;52.508;13.454;2023-12-29T06:55:14;9.20;99.90
6538;DHT22;3302;52.508;13.454;2023-12-29T06:57:40;9.20;99.90
6538;DHT22;3302;52.508;13.454;2023-12-29T07:00:06;9.30;99.90
6538;DHT22;3302;52.508;13.454;2023-12-29T07:02:32;9.30;99.90
6538;DHT22;3302;52.508;13.454;2023-12-29T07:04:58;9.30;99.90
6538;DHT22;3302;52.508;13.454;2023-12-29T07:07:24;9.30;99.90
6538;DHT22;3302;52.508;13.454;2023-12-29T07:09:50;9.30;99.90
6538;DHT22;3302;52.508;13.454;2023-12-29T07:12:16;9.30;99.90
6538;DHT22;3302;52.508;13.454;2023-12-29T07:14:42;9.30;99.90
6538;DHT22;3302;52.508;13.454;2023-12-29T07:17:08;9.30;99.90
6538;DHT22;3302;52.508;13.454;2023-12-29T07:19:34;9.30;99.90
6538;DHT22;3302;52.508;13.454;2023-12-29T07:22:04;9.30;99.90
6538;DHT22;3302;52.508;13.454;2023-12-29T07:24:31;9.30;99.90
6538;DHT22;3302;52.508;13.454;2023-12-29T07:26:57;9.30;99.90
6538;DHT22;3302;52.508;13.454;2023-12-29T07:29:23;9.30;99.90
6538;DHT22;3302;52.508;13.454;2023-12-29T07:31:49;9.40;99.90
6538;DHT22;3302;52.508;13.454;2023-12-29T07:34:15;9.30;99.90
6538;DHT22;3302;52.508;13.454;2023-12-29T07:36:41;9.30;99.90
6538;DHT22;3302;52.508;13.454;2023-12-29T07:39:07;9.30;99.90
6538;DHT22;3302;52.508;13.454;2023-12-29T07:41:33;9.30;99.90
6538;DHT22;3302;52.508;13.454;2023-12-29T07:43:59;9.30;99.90
6538;DHT22;3302;52.508;13.454;2023-12-29T07:46:28;9.30;99.90
6538;DHT22;3302;52.508;13.454;2023-12-29T07:48:54;9.30;99.90
6538;DHT22;3302;52.508;13.454;2023-12-29T07:51:20;9.30;99.90
6538;DHT22;3302;52.508;13.454;2023-12-29T07:53:45;9.30;99.90
6538;DHT22;3302;52.508;13.454;2023-12-29T07:56:11;9.20;99.90
6538;DHT22;3302;52.508;13.454;2023-12-29T07:58:37;9.30;99.90
6538;DHT22;3302;52.508;13.454;2023-12-29T08:01:03;9.30;99.90
6538;DHT22;3302;52.508;13.454;2023-12-29T08:03:29;9.30;99.90
6538;DHT22;3302;52.508;13.454;2023-12-29T08:05:54;9.30;99.90
6538;DHT22;3302;52.508;13.454;2023-12-29T08:08:20;9.30;99.90
6538;DHT22;3302;52.508;13.454;2023-12-29T08:10:46;9.40;99.90
6538;DHT22;3302;52.508;13.454;2023-12-29T08:13:12;9.40;99.90
6538;DHT22;3302;52.508;13.454;2023-12-29T08:15:38;9.50;99.90
6538;DHT22;3302;52.508;13.454;2023-12-29T08:18:06;9.40;99.90
6538;DHT22;3302;52.508;13.454;2023-12-29T08:20:32;9.50;99.90
6538;DHT22;3302;52.508;13.454;2023-12-29T08:22:58;9.60;99.90
6538;DHT22;3302;52.508;13.454;2023-12-29T08:25:24;9.60;99.90
6538;DHT22;3302;52.508;13.454;2023-12-29T08:27:49;9.60;99.90
6538;DHT22;3302;52.508;13.454;2023-12-29T08:30:15;9.60;99.90
6538;DHT22;3302;52.508;13.454;2023-12-29T08:32:41;9.70;99.90
6538;DHT22;3302;52.508;13.454;2023-12-29T08:35:07;9.70;99.90
6538;DHT22;3302;52.508;13.454;2023-12-29T08:37:32;9.70;99.90
6538;DHT22;3302;52.508;13.454;2023-12-29T08:39:59;9.70;99.90
6538;DHT22;3302;52.508;13.454;2023-12-29T08:42:25;9.60;99.90
6538;DHT22;3302;52.508;13.454;2023-12-29T08:44:52;9.70;99.90
6538;DHT22;3302;52.508;13.454;2023-12-29T08:47:18;9.70;99.90
6538;DHT22;3302;52.508;13.454;2023-12-29T08:49:44;9.70;99.90
6538;DHT22;3302;52.508;13.454;2023-12-29T08:52:09;9.70;99.90
6538;DHT22;3302;52.508;13.454;2023-12-29T08:54:35;9.70;99.90
6538;DHT22;3302;52.508;13.454;2023-12-29T08:57:04;9.70;99.90
6538;DHT22;3302;52.508;13.454;2023-12-29T08:59:32;9.70;99.90
6538;DHT22;3302;52.508;13.454;2023-12-29T09:01:58;9.70;99.90
6538;DHT22;3302;52.508;13.454;2023-12-29T09:04:24;9.70;99.90
6538;DHT22;3302;52.508;13.454;2023-12-29T09:06:50;9.70;99.90
6538;DHT22;3302;52.508;13.454;2023-12-29T09:09:16;9.80;99.90
6538;DHT22;3302;52.508;13.454;2023-12-29T09:11:42;9.80;99.90
6538;DHT22;3302;52.508;13.454;2023-12-29T09:14:08;9.90;99.90
6538;DHT22;3302;52.508;13.454;2023-12-29T09:16:35;9.90;99.90
6538;DHT22;3302;52.508;13.454;2023-12-29T09:19:01;10.00;99.90
6538;DHT22;3302;52.508;13.454;2023-12-29T09:21:27;10.00;99.90
6538;DHT22;3302;52.508;13.454;2023-12-29T09:23:53;10.00;99.90
6538;DHT22;3302;52.508;13.454;2023-12-29T09:26:19;10.10;99.90
6538;DHT22;3302;52.508;13.454;2023-12-29T09:28:44;10.00;99.90
6538;DHT22;3302;52.508;13.454;2023-12-29T09:31:11;10.00;99.90
6538;DHT22;3302;52.508;13.454;2023-12-29T09:33:37;10.10;99.90
6538;DHT22;3302;52.508;13.454;2023-12-29T09:36:03;10.10;99.80
6538;DHT22;3302;52.508;13.454;2023-12-29T09:38:29;10.10;99.60
6538;DHT22;3302;52.508;13.454;2023-12-29T09:40:59;10.10;99.60
6538;DHT22;3302;52.508;13.454;2023-12-29T09:43:31;10.10;99.70
6538;DHT22;3302;52.508;13.454;2023-12-29T09:45:58;10.10;99.90
6538;DHT22;3302;52.508;13.454;2023-12-29T09:48:26;10.10;99.80
6538;DHT22;3302;52.508;13.454;2023-12-29T09:50:53;10.10;99.70
6538;DHT22;3302;52.508;13.454;2023-12-29T09:53:20;10.10;99.80
6538;DHT22;3302;52.508;13.454;2023-12-29T09:55:48;10.00;99.90
6538;DHT22;3302;52.508;13.454;2023-12-29T09:58:15;10.00;99.90
6538;DHT22;3302;52.508;13.454;2023-12-29T10:00:42;10.00;99.90
6538;DHT22;3302;52.508;13.454;2023-12-29T10:03:08;10.00;99.90
6538;DHT22;3302;52.508;13.454;2023-12-29T10:05:34;10.10;99.90
6538;DHT22;3302;52.508;13.454;2023-12-29T10:08:02;10.10;99.90
6538;DHT22;3302;52.508;13.454;2023-12-29T10:10:30;10.10;99.90
6538;DHT22;3302;52.508;13.454;2023-12-29T10:12:57;10.20;99.70
6538;DHT22;3302;52.508;13.454;2023-12-29T10:15:49;10.20;99.50
6538;DHT22;3302;52.508;13.454;2023-12-29T10:18:38;10.20;99.70
6538;DHT22;3302;52.508;13.454;2023-12-29T10:23:53;10.30;99.20
6538;DHT22;3302;52.508;13.454;2023-12-29T10:26:22;10.40;98.80
6538;DHT22;3302;52.508;13.454;2023-12-29T10:28:49;10.40;98.70
6538;DHT22;3302;52.508;13.454;2023-12-29T10:31:15;10.50;98.50
6538;DHT22;3302;52.508;13.454;2023-12-29T10:33:42;10.50;98.60
6538;DHT22;3302;52.508;13.454;2023-12-29T10:36:07;10.50;98.50
6538;DHT22;3302;52.508;13.454;2023-12-29T10:38:34;10.50;98.60
6538;DHT22;3302;52.508;13.454;2023-12-29T10:43:38;10.50;98.40
6538;DHT22;3302;52.508;13.454;2023-12-29T10:46:08;10.50;98.90
6538;DHT22;3302;52.508;13.454;2023-12-29T10:48:35;10.60;98.40
6538;DHT22;3302;52.508;13.454;2023-12-29T10:51:02;10.60;98.50
6538;DHT22;3302;52.508;13.454;2023-12-29T10:53:34;10.60;98.40
6538;DHT22;3302;52.508;13.454;2023-12-29T10:55:59;10.60;98.40
6538;DHT22;3302;52.508;13.454;2023-12-29T10:58:26;10.60;98.30
6538;DHT22;3302;52.508;13.454;2023-12-29T11:00:55;10.60;98.20
6538;DHT22;3302;52.508;13.454;2023-12-29T11:03:21;10.60;98.20
6538;DHT22;3302;52.508;13.454;2023-12-29T11:05:47;10.70;98.30
6538;DHT22;3302;52.508;13.454;2023-12-29T11:08:20;10.70;98.20
6538;DHT22;3302;52.508;13.454;2023-12-29T11:10:51;10.70;98.10
6538;DHT22;3302;52.508;13.454;2023-12-29T11:13:19;10.80;97.90
6538;DHT22;3302;52.508;13.454;2023-12-29T11:15:46;10.80;97.70
6538;DHT22;3302;52.508;13.454;2023-12-29T11:18:16;10.90;97.40
6538;DHT22;3302;52.508;13.454;2023-12-29T11:20:43;10.90;97.00
6538;DHT22;3302;52.508;13.454;2023-12-29T11:23:10;10.90;97.00
6538;DHT22;3302;52.508;13.454;2023-12-29T11:25:39;10.90;96.80
6538;DHT22;3302;52.508;13.454;2023-12-29T11:28:08;10.90;97.00
6538;DHT22;3302;52.508;13.454;2023-12-29T11:30:35;10.90;97.00
6538;DHT22;3302;52.508;13.454;2023-12-29T11:33:06;11.00;96.80
6538;DHT22;3302;52.508;13.454;2023-12-29T11:35:45;10.90;96.90
6538;DHT22;3302;52.508;13.454;2023-12-29T11:38:37;10.90;97.10
6538;DHT22;3302;52.508;13.454;2023-12-29T11:41:32;10.90;97.10
6538;DHT22;3302;52.508;13.454;2023-12-29T11:44:00;10.90;97.10
6538;DHT22;3302;52.508;13.454;2023-12-29T11:46:39;10.90;96.90
6538;DHT22;3302;52.508;13.454;2023-12-29T11:49:06;11.00;96.70
6538;DHT22;3302;52.508;13.454;2023-12-29T11:51:40;10.90;97.00
6538;DHT22;3302;52.508;13.454;2023-12-29T11:54:06;10.90;97.10
6538;DHT22;3302;52.508;13.454;2023-12-29T11:56:39;10.90;96.80
6538;DHT22;3302;52.508;13.454;2023-12-29T11:59:23;10.90;96.80
6538;DHT22;3302;52.508;13.454;2023-12-29T12:01:53;10.90;96.90
6538;DHT22;3302;52.508;13.454;2023-12-29T12:04:39;10.90;97.00
6538;DHT22;3302;52.508;13.454;2023-12-29T12:12:56;10.70;98.20
6538;DHT22;3302;52.508;13.454;2023-12-29T12:17:53;10.70;98.60
6538;DHT22;3302;52.508;13.454;2023-12-29T12:20:19;10.70;98.60
6538;DHT22;3302;52.508;13.454;2023-12-29T12:22:49;10.70;98.80
6538;DHT22;3302;52.508;13.454;2023-12-29T12:25:16;10.70;98.80
6538;DHT22;3302;52.508;13.454;2023-12-29T12:27:42;10.70;98.80
6538;DHT22;3302;52.508;13.454;2023-12-29T12:30:09;10.70;98.80
6538;DHT22;3302;52.508;13.454;2023-12-29T12:32:35;10.70;98.70
6538;DHT22;3302;52.508;13.454;2023-12-29T12:35:01;10.70;99.40
6538;DHT22;3302;52.508;13.454;2023-12-29T12:37:29;10.60;99.70
6538;DHT22;3302;52.508;13.454;2023-12-29T12:39:56;10.60;99.60
6538;DHT22;3302;52.508;13.454;2023-12-29T12:42:23;10.60;99.60
6538;DHT22;3302;52.508;13.454;2023-12-29T12:45:28;10.60;99.80
6538;DHT22;3302;52.508;13.454;2023-12-29T12:47:52;10.50;99.90
6538;DHT22;3302;52.508;13.454;2023-12-29T12:50:19;10.50;99.90
6538;DHT22;3302;52.508;13.454;2023-12-29T12:52:45;10.50;99.90
6538;DHT22;3302;52.508;13.454;2023-12-29T12:55:12;10.50;99.90
6538;DHT22;3302;52.508;13.454;2023-12-29T12:57:40;10.50;99.90
6538;DHT22;3302;52.508;13.454;2023-12-29T13:00:07;10.40;99.90
6538;DHT22;3302;52.508;13.454;2023-12-29T13:02:35;10.40;99.90
6538;DHT22;3302;52.508;13.454;2023-12-29T13:05:02;10.30;99.90
6538;DHT22;3302;52.508;13.454;2023-12-29T13:07:34;10.30;99.90
6538;DHT22;3302;52.508;13.454;2023-12-29T13:10:01;10.20;99.90
6538;DHT22;3302;52.508;13.454;2023-12-29T13:12:27;10.20;99.90
6538;DHT22;3302;52.508;13.454;2023-12-29T13:14:53;10.20;99.90
6538;DHT22;3302;52.508;13.454;2023-12-29T13:17:29;10.20;99.90
6538;DHT22;3302;52.508;13.454;2023-12-29T13:19:57;10.20;99.90
6538;DHT22;3302;52.508;13.454;2023-12-29T13:22:26;10.20;99.90
6538;DHT22;3302;52.508;13.454;2023-12-29T13:24:54;10.20;99.90
6538;DHT22;3302;52.508;13.454;2023-12-29T13:27:22;10.20;99.90
6538;DHT22;3302;52.508;13.454;2023-12-29T13:29:48;10.20;99.90
6538;DHT22;3302;52.508;13.454;2023-12-29T13:32:20;10.30;99.90
6538;DHT22;3302;52.508;13.454;2023-12-29T13:34:54;10.30;99.90
6538;DHT22;3302;52.508;13.454;2023-12-29T13:37:45;10.30;99.90
6538;DHT22;3302;52.508;13.454;2023-12-29T13:40:39;10.30;99.90
6538;DHT22;3302;52.508;13.454;2023-12-29T13:43:08;10.40;99.90
6538;DHT22;3302;52.508;13.454;2023-12-29T13:45:36;10.30;99.90
6538;DHT22;3302;52.508;13.454;2023-12-29T13:48:02;10.40;99.90
6538;DHT22;3302;52.508;13.454;2023-12-29T13:50:29;10.30;99.90
6538;DHT22;3302;52.508;13.454;2023-12-29T13:52:55;10.40;99.90
6538;DHT22;3302;52.508;13.454;2023-12-29T13:55:24;10.40;99.90
6538;DHT22;3302;52.508;13.454;2023-12-29T13:57:51;10.40;99.90
6538;DHT22;3302;52.508;13.454;2023-12-29T14:00:18;10.40;99.90
6538;DHT22;3302;52.508;13.454;2023-12-29T14:10:33;10.50;99.90
6538;DHT22;3302;52.508;13.454;2023-12-29T14:13:11;10.50;99.90
6538;DHT22;3302;52.508;13.454;2023-12-29T14:15:39;10.40;99.90
6538;DHT22;3302;52.508;13.454;2023-12-29T14:20:55;10.50;99.90
6538;DHT22;3302;52.508;13.454;2023-12-29T14:23:20;10.50;99.90
6538;DHT22;3302;52.508;13.454;2023-12-29T14:25:46;10.50;99.90
6538;DHT22;3302;52.508;13.454;2023-12-29T14:28:17;10.60;99.90
6538;DHT22;3302;52.508;13.454;2023-12-29T14:30:44;10.60;99.90
6538;DHT22;3302;52.508;13.454;2023-12-29T14:33:10;10.60;99.90
6538;DHT22;3302;52.508;13.454;2023-12-29T14:35:36;10.60;99.90
6538;DHT22;3302;52.508;13.454;2023-12-29T14:38:03;10.60;99.90
6538;DHT22;3302;52.508;13.454;2023-12-29T14:40:30;10.60;99.90
6538;DHT22;3302;52.508;13.454;2023-12-29T14:42:56;10.70;99.90
6538;DHT22;3302;52.508;13.454;2023-12-29T14:45:21;10.60;99.90
6538;DHT22;3302;52.508;13.454;2023-12-29T14:47:47;10.60;99.90
6538;DHT22;3302;52.508;13.454;2023-12-29T14:50:15;10.70;99.90
6538;DHT22;3302;52.508;13.454;2023-12-29T14:52:41;10.70;99.90
6538;DHT22;3302;52.508;13.454;2023-12-29T14:55:08;10.70;99.90
6538;DHT22;3302;52.508;13.454;2023-12-29T14:57:33;10.60;99.90
6538;DHT22;3302;52.508;13.454;2023-12-29T14:59:59;10.70;99.90
6538;DHT22;3302;52.508;13.454;2023-12-29T15:02:25;10.70;99.90
6538;DHT22;3302;52.508;13.454;2023-12-29T15:04:51;10.70;99.90
6538;DHT22;3302;52.508;13.454;2023-12-29T15:07:17;10.70;99.90
6538;DHT22;3302;52.508;13.454;2023-12-29T15:09:43;10.70;99.90
6538;DHT22;3302;52.508;13.454;2023-12-29T15:12:09;10.70;99.90
6538;DHT22;3302;52.508;13.454;2023-12-29T15:14:35;10.60;99.90
6538;DHT22;3302;52.508;13.454;2023-12-29T15:17:01;10.60;99.90
6538;DHT22;3302;52.508;13.454;2023-12-29T15:19:27;10.60;99.90
6538;DHT22;3302;52.508;13.454;2023-12-29T15:21:53;10.60;99.90
6538;DHT22;3302;52.508;13.454;2023-12-29T15:24:20;10.60;99.90
6538;DHT22;3302;52.508;13.454;2023-12-29T15:26:46;10.50;99.90
6538;DHT22;3302;52.508;13.454;2023-12-29T15:29:12;10.60;99.90
6538;DHT22;3302;52.508;13.454;2023-12-29T15:31:41;10.60;99.90
6538;DHT22;3302;52.508;13.454;2023-12-29T15:34:07;10.60;99.90
6538;DHT22;3302;52.508;13.454;2023-12-29T15:36:33;10.60;99.90
6538;DHT22;3302;52.508;13.454;2023-12-29T15:38:58;10.50;99.90
6538;DHT22;3302;52.508;13.454;2023-12-29T15:41:25;10.40;99.90
6538;DHT22;3302;52.508;13.454;2023-12-29T15:43:50;10.40;99.90
6538;DHT22;3302;52.508;13.454;2023-12-29T15:46:17;10.40;99.90
6538;DHT22;3302;52.508;13.454;2023-12-29T15:48:44;10.40;99.90
6538;DHT22;3302;52.508;13.454;2023-12-29T15:51:10;10.40;99.90
6538;DHT22;3302;52.508;13.454;2023-12-29T15:53:36;10.40;99.90
6538;DHT22;3302;52.508;13.454;2023-12-29T15:56:03;10.40;99.90
6538;DHT22;3302;52.508;13.454;2023-12-29T15:58:29;10.40;99.90
6538;DHT22;3302;52.508;13.454;2023-12-29T16:00:55;10.40;99.90
6538;DHT22;3302;52.508;13.454;2023-12-29T16:03:21;10.40;99.90
6538;DHT22;3302;52.508;13.454;2023-12-29T16:05:47;10.40;99.90
6538;DHT22;3302;52.508;13.454;2023-12-29T16:08:12;10.40;99.90
6538;DHT22;3302;52.508;13.454;2023-12-29T16:10:38;10.50;99.90
6538;DHT22;3302;52.508;13.454;2023-12-29T16:13:04;10.40;99.90
6538;DHT22;3302;52.508;13.454;2023-12-29T16:15:30;10.40;99.90
6538;DHT22;3302;52.508;13.454;2023-12-29T16:17:57;10.40;99.90
6538;DHT22;3302;52.508;13.454;2023-12-29T16:20:23;10.40;99.90
6538;DHT22;3302;52.508;13.454;2023-12-29T16:22:48;10.40;99.90
6538;DHT22;3302;52.508;13.454;2023-12-29T16:25:14;10.30;99.90